sensor_id;sensor_type;location;lat;lon;timestamp;temperature;humidity
1830;DHT22;914;48.118;11.600;2022-08-04T01:53:57;23.80;82.80
1830;DHT22;914;48.118;11.600;2022-08-04T01:56:28;23.30;83.70
1830;DHT22;914;48.118;11.600;2022-08-04T01:59:02;23.00;84.90
1830;DHT22;914;48.118;11.600;2022-08-04T02:01:28;23.00;85.20
1830;DHT22;914;48.118;11.600;2022-08-04T02:04:00;23.20;84.20
1830;DHT22;914;48.118;11.600;2022-08-04T02:06:48;23.40;84.20
1830;DHT22;914;48.118;11.600;2022-08-04T02:17:56;23.20;85.10
1830;DHT22;914;48.118;11.600;2022-08-04T02:20:34;23.20;85.00
1830;DHT22;914;48.118;11.600;2022-08-04T02:23:15;23.00;85.60
1830;DHT22;914;48.118;11.600;2022-08-04T02:25:55;23.00;85.70
1830;DHT22;914;48.118;11.600;2022-08-04T02:31:53;23.30;84.20
1830;DHT22;914;48.118;11.600;2022-08-04T02:37:08;23.40;84.80
1830;DHT22;914;48.118;11.600;2022-08-04T02:40:11;23.50;84.70
1830;DHT22;914;48.118;11.600;2022-08-04T02:42:43;23.40;84.50
1830;DHT22;914;48.118;11.600;2022-08-04T02:45:11;23.50;84.10
1830;DHT22;914;48.118;11.600;2022-08-04T02:47:38;23.60;83.50
1830;DHT22;914;48.118;11.600;2022-08-04T02:50:07;23.50;83.70
1830;DHT22;914;48.118;11.600;2022-08-04T02:52:42;23.50;84.10
1830;DHT22;914;48.118;11.600;2022-08-04T02:55:11;23.50;84.20
1830;DHT22;914;48.118;11.600;2022-08-04T02:57:44;23.40;84.60
1830;DHT22;914;48.118;11.600;2022-08-04T03:00:15;23.40;84.80
1830;DHT22;914;48.118;11.600;2022-08-04T03:05:16;23.30;85.10
1830;DHT22;914;48.118;11.600;2022-08-04T03:08:15;22.90;85.90
1830;DHT22;914;48.118;11.600;2022-08-04T03:16:53;22.90;86.30
1830;DHT22;914;48.118;11.600;2022-08-04T03:25:37;23.10;84.10
1830;DHT22;914;48.118;11.600;2022-08-04T03:31:05;23.10;83.70
1830;DHT22;914;48.118;11.600;2022-08-04T03:50:55;22.60;87.80
1830;DHT22;914;48.118;11.600;2022-08-04T04:09:11;22.50;87.80
1830;DHT22;914;48.118;11.600;2022-08-04T04:13:13;22.60;87.00
1830;DHT22;914;48.118;11.600;2022-08-04T05:10:22;22.50;90.30
1830;DHT22;914;48.118;11.600;2022-08-04T05:15:40;22.50;90.30
1830;DHT22;914;48.118;11.600;2022-08-04T05:19:20;22.70;90.20
1830;DHT22;914;48.118;11.600;2022-08-04T05:22:10;22.90;90.00
1830;DHT22;914;48.118;11.600;2022-08-04T05:24:41;23.10;90.00
1830;DHT22;914;48.118;11.600;2022-08-04T05:28:06;23.30;89.40
1830;DHT22;914;48.118;11.600;2022-08-04T05:31:17;23.50;89.20
1830;DHT22;914;48.118;11.600;2022-08-04T07:11:14;27.50;81.00
1830;DHT22;914;48.118;11.600;2022-08-04T07:18:30;27.80;83.20
1830;DHT22;914;48.118;11.600;2022-08-04T07:21:20;27.90;82.20
1830;DHT22;914;48.118;11.600;2022-08-04T07:24:52;27.70;82.50
1830;DHT22;914;48.118;11.600;2022-08-04T08:32:39;30.30;73.80
1830;DHT22;914;48.118;11.600;2022-08-04T12:51:45;42.30;47.40
1830;DHT22;914;48.118;11.600;2022-08-04T12:54:23;42.50;47.50
1830;DHT22;914;48.118;11.600;2022-08-04T13:04:41;42.90;46.90
1830;DHT22;914;48.118;11.600;2022-08-04T13:07:41;42.80;46.10
1830;DHT22;914;48.118;11.600;2022-08-04T13:17:12;40.40;46.10
1830;DHT22;914;48.118;11.600;2022-08-04T13:22:37;41.60;46.90
1830;DHT22;914;48.118;11.600;2022-08-04T13:25:11;42.50;45.00
1830;DHT22;914;48.118;11.600;2022-08-04T13:30:42;41.40;44.70
1830;DHT22;914;48.118;11.600;2022-08-04T13:33:47;42.30;45.30
1830;DHT22;914;48.118;11.600;2022-08-04T13:37:41;40.50;44.80
1830;DHT22;914;48.118;11.600;2022-08-04T13:40:32;39.80;45.50
1830;DHT22;914;48.118;11.600;2022-08-04T13:43:27;40.20;45.80
1830;DHT22;914;48.118;11.600;2022-08-04T13:47:03;39.50;44.60
1830;DHT22;914;48.118;11.600;2022-08-04T13:49:34;39.00;45.90
1830;DHT22;914;48.118;11.600;2022-08-04T13:52:35;38.10;47.20
1830;DHT22;914;48.118;11.600;2022-08-04T13:55:34;38.40;47.30
1830;DHT22;914;48.118;11.600;2022-08-04T13:58:23;38.30;48.10
1830;DHT22;914;48.118;11.600;2022-08-04T14:01:42;39.40;49.30
1830;DHT22;914;48.118;11.600;2022-08-04T14:04:41;39.60;46.40
1830;DHT22;914;48.118;11.600;2022-08-04T14:11:03;38.80;47.90
1830;DHT22;914;48.118;11.600;2022-08-04T14:13:58;39.60;47.30
1830;DHT22;914;48.118;11.600;2022-08-04T14:16:28;40.00;47.70
1830;DHT22;914;48.118;11.600;2022-08-04T14:19:23;40.10;46.80
1830;DHT22;914;48.118;11.600;2022-08-04T14:21:58;39.50;46.30
1830;DHT22;914;48.118;11.600;2022-08-04T14:24:30;38.00;47.90
1830;DHT22;914;48.118;11.600;2022-08-04T14:27:44;37.30;49.00
1830;DHT22;914;48.118;11.600;2022-08-04T14:30:29;37.10;51.10
1830;DHT22;914;48.118;11.600;2022-08-04T14:33:38;36.90;50.00
1830;DHT22;914;48.118;11.600;2022-08-04T14:36:20;36.50;51.70
1830;DHT22;914;48.118;11.600;2022-08-04T14:39:17;36.00;51.40
1830;DHT22;914;48.118;11.600;2022-08-04T14:42:16;36.00;51.70
1830;DHT22;914;48.118;11.600;2022-08-04T14:45:00;36.00;52.00
1830;DHT22;914;48.118;11.600;2022-08-04T14:47:45;35.70;52.90
1830;DHT22;914;48.118;11.600;2022-08-04T14:50:47;35.70;52.10
1830;DHT22;914;48.118;11.600;2022-08-04T14:53:26;35.60;52.10
1830;DHT22;914;48.118;11.600;2022-08-04T14:56:41;35.60;51.90
1830;DHT22;914;48.118;11.600;2022-08-04T14:59:17;35.50;52.00
1830;DHT22;914;48.118;11.600;2022-08-04T15:01:50;35.70;52.10
1830;DHT22;914;48.118;11.600;2022-08-04T15:04:23;35.20;51.80
1830;DHT22;914;48.118;11.600;2022-08-04T15:06:59;35.00;52.20
1830;DHT22;914;48.118;11.600;2022-08-04T15:09:36;34.90;51.80
1830;DHT22;914;48.118;11.600;2022-08-04T15:12:23;35.30;52.80
1830;DHT22;914;48.118;11.600;2022-08-04T15:14:58;35.40;52.10
1830;DHT22;914;48.118;11.600;2022-08-04T15:17:43;35.40;51.60
1830;DHT22;914;48.118;11.600;2022-08-04T15:21:18;35.20;51.40
1830;DHT22;914;48.118;11.600;2022-08-04T15:23:57;35.20;52.30
1830;DHT22;914;48.118;11.600;2022-08-04T15:26:50;35.40;52.00
1830;DHT22;914;48.118;11.600;2022-08-04T15:29:44;35.40;51.30
1830;DHT22;914;48.118;11.600;2022-08-04T15:38:27;35.90;52.60
1830;DHT22;914;48.118;11.600;2022-08-04T15:41:52;35.70;50.90
1830;DHT22;914;48.118;11.600;2022-08-04T16:09:04;35.60;51.40
1830;DHT22;914;48.118;11.600;2022-08-04T16:16:45;35.60;49.70
1830;DHT22;914;48.118;11.600;2022-08-04T16:22:37;35.30;51.50
1830;DHT22;914;48.118;11.600;2022-08-04T16:25:07;35.30;50.40
1830;DHT22;914;48.118;11.600;2022-08-04T16:27:37;35.10;50.60
1830;DHT22;914;48.118;11.600;2022-08-04T16:30:05;35.20;50.00
1830;DHT22;914;48.118;11.600;2022-08-04T16:32:46;34.80;50.40
1830;DHT22;914;48.118;11.600;2022-08-04T16:35:22;34.60;51.00
1830;DHT22;914;48.118;11.600;2022-08-04T16:37:52;34.50;52.60
1830;DHT22;914;48.118;11.600;2022-08-04T16:42:56;34.80;51.80
1830;DHT22;914;48.118;11.600;2022-08-04T16:45:22;34.60;51.40
1830;DHT22;914;48.118;11.600;2022-08-04T16:50:15;34.50;50.90
1830;DHT22;914;48.118;11.600;2022-08-04T16:52:47;34.60;51.10
1830;DHT22;914;48.118;11.600;2022-08-04T16:55:21;34.70;51.60
1830;DHT22;914;48.118;11.600;2022-08-04T16:57:48;34.70;51.00
1830;DHT22;914;48.118;11.600;2022-08-04T17:00:15;34.70;50.90
1830;DHT22;914;48.118;11.600;2022-08-04T17:02:42;34.60;51.20
1830;DHT22;914;48.118;11.600;2022-08-04T17:05:23;34.40;51.50
1830;DHT22;914;48.118;11.600;2022-08-04T17:07:56;34.40;51.00
1830;DHT22;914;48.118;11.600;2022-08-04T17:10:41;34.60;51.60
1830;DHT22;914;48.118;11.600;2022-08-04T17:15:59;34.20;51.40
1830;DHT22;914;48.118;11.600;2022-08-04T17:18:28;33.90;51.70
1830;DHT22;914;48.118;11.600;2022-08-04T17:20:57;34.10;51.80
1830;DHT22;914;48.118;11.600;2022-08-04T17:23:25;33.90;52.00
1830;DHT22;914;48.118;11.600;2022-08-04T17:26:09;34.00;51.80
1830;DHT22;914;48.118;11.600;2022-08-04T17:28:36;34.10;51.80
1830;DHT22;914;48.118;11.600;2022-08-04T17:31:03;34.40;52.40
1830;DHT22;914;48.118;11.600;2022-08-04T17:33:29;34.40;51.50
1830;DHT22;914;48.118;11.600;2022-08-04T17:35:57;34.50;51.60
1830;DHT22;914;48.118;11.600;2022-08-04T17:38:31;34.40;51.80
1830;DHT22;914;48.118;11.600;2022-08-04T17:41:02;34.40;51.40
1830;DHT22;914;48.118;11.600;2022-08-04T17:43:41;34.60;52.70
1830;DHT22;914;48.118;11.600;2022-08-04T17:48:44;34.90;53.50
1830;DHT22;914;48.118;11.600;2022-08-04T17:51:14;35.00;53.30
1830;DHT22;914;48.118;11.600;2022-08-04T17:53:41;34.90;53.50
1830;DHT22;914;48.118;11.600;2022-08-04T17:59:24;34.40;52.50
1830;DHT22;914;48.118;11.600;2022-08-04T18:07:12;34.50;53.10
1830;DHT22;914;48.118;11.600;2022-08-04T18:09:50;34.40;53.60
1830;DHT22;914;48.118;11.600;2022-08-04T18:12:26;34.20;53.30
1830;DHT22;914;48.118;11.600;2022-08-04T18:14:59;34.20;53.80
1830;DHT22;914;48.118;11.600;2022-08-04T18:17:38;34.20;54.60
1830;DHT22;914;48.118;11.600;2022-08-04T18:20:09;34.10;54.70
1830;DHT22;914;48.118;11.600;2022-08-04T18:22:36;34.10;54.90
1830;DHT22;914;48.118;11.600;2022-08-04T18:25:03;34.00;55.40
1830;DHT22;914;48.118;11.600;2022-08-04T18:27:30;33.90;55.70
1830;DHT22;914;48.118;11.600;2022-08-04T18:29:56;33.90;55.70
1830;DHT22;914;48.118;11.600;2022-08-04T18:32:22;33.80;55.50
1830;DHT22;914;48.118;11.600;2022-08-04T18:34:51;33.70;55.30
1830;DHT22;914;48.118;11.600;2022-08-04T18:37:16;33.60;54.60
1830;DHT22;914;48.118;11.600;2022-08-04T18:39:42;33.50;55.30
1830;DHT22;914;48.118;11.600;2022-08-04T18:42:09;33.40;56.30
1830;DHT22;914;48.118;11.600;2022-08-04T18:44:34;33.30;56.40
1830;DHT22;914;48.118;11.600;2022-08-04T18:47:01;33.30;56.10
1830;DHT22;914;48.118;11.600;2022-08-04T18:49:32;33.30;56.60
1830;DHT22;914;48.118;11.600;2022-08-04T18:51:58;33.30;56.80
1830;DHT22;914;48.118;11.600;2022-08-04T18:54:29;33.40;56.90
1830;DHT22;914;48.118;11.600;2022-08-04T18:57:02;33.30;57.10
1830;DHT22;914;48.118;11.600;2022-08-04T18:59:30;33.20;57.20
1830;DHT22;914;48.118;11.600;2022-08-04T19:01:56;33.10;57.10
1830;DHT22;914;48.118;11.600;2022-08-04T19:04:22;33.00;56.80
1830;DHT22;914;48.118;11.600;2022-08-04T19:06:47;32.80;57.20
1830;DHT22;914;48.118;11.600;2022-08-04T19:09:13;32.80;57.30
1830;DHT22;914;48.118;11.600;2022-08-04T19:11:39;32.80;57.90
1830;DHT22;914;48.118;11.600;2022-08-04T19:14:05;32.80;58.20
1830;DHT22;914;48.118;11.600;2022-08-04T19:16:32;32.80;58.40
1830;DHT22;914;48.118;11.600;2022-08-04T19:18:59;32.70;58.40
1830;DHT22;914;48.118;11.600;2022-08-04T19:21:25;32.70;58.60
1830;DHT22;914;48.118;11.600;2022-08-04T19:23:53;32.60;58.80
1830;DHT22;914;48.118;11.600;2022-08-04T19:26:19;32.50;58.80
1830;DHT22;914;48.118;11.600;2022-08-04T19:28:45;32.50;58.80
1830;DHT22;914;48.118;11.600;2022-08-04T19:31:11;32.40;58.70
1830;DHT22;914;48.118;11.600;2022-08-04T19:33:39;32.40;59.10
1830;DHT22;914;48.118;11.600;2022-08-04T19:36:07;32.30;59.30
1830;DHT22;914;48.118;11.600;2022-08-04T19:38:33;32.30;59.40
1830;DHT22;914;48.118;11.600;2022-08-04T19:40:59;32.20;59.40
1830;DHT22;914;48.118;11.600;2022-08-04T19:43:25;32.20;59.60
1830;DHT22;914;48.118;11.600;2022-08-04T19:45:51;32.20;59.90
1830;DHT22;914;48.118;11.600;2022-08-04T19:48:17;32.20;60.00
1830;DHT22;914;48.118;11.600;2022-08-04T19:50:43;32.10;60.00
1830;DHT22;914;48.118;11.600;2022-08-04T19:53:09;32.10;60.20
1830;DHT22;914;48.118;11.600;2022-08-04T19:55:35;32.00;59.90
1830;DHT22;914;48.118;11.600;2022-08-04T19:58:07;31.90;60.00
1830;DHT22;914;48.118;11.600;2022-08-04T20:00:34;31.80;60.40
1830;DHT22;914;48.118;11.600;2022-08-04T20:03:01;31.70;60.90
1830;DHT22;914;48.118;11.600;2022-08-04T20:05:26;31.60;61.30
1830;DHT22;914;48.118;11.600;2022-08-04T20:07:52;31.60;62.00
1830;DHT22;914;48.118;11.600;2022-08-04T20:10:18;31.60;62.60
1830;DHT22;914;48.118;11.600;2022-08-04T20:12:43;31.60;62.90
1830;DHT22;914;48.118;11.600;2022-08-04T20:15:09;31.50;62.90
1830;DHT22;914;48.118;11.600;2022-08-04T20:17:35;31.50;62.80
1830;DHT22;914;48.118;11.600;2022-08-04T20:20:02;31.50;62.50
1830;DHT22;914;48.118;11.600;2022-08-04T20:22:28;31.40;62.30
1830;DHT22;914;48.118;11.600;2022-08-04T20:24:54;31.30;62.60
1830;DHT22;914;48.118;11.600;2022-08-04T20:27:20;31.30;63.30
1830;DHT22;914;48.118;11.600;2022-08-04T20:29:48;31.20;62.80
1830;DHT22;914;48.118;11.600;2022-08-04T20:32:16;31.10;62.90
1830;DHT22;914;48.118;11.600;2022-08-04T20:34:41;31.10;63.30
1830;DHT22;914;48.118;11.600;2022-08-04T20:37:08;31.00;63.40
1830;DHT22;914;48.118;11.600;2022-08-04T20:39:33;31.00;63.90
1830;DHT22;914;48.118;11.600;2022-08-04T20:42:02;30.90;64.10
1830;DHT22;914;48.118;11.600;2022-08-04T20:44:33;30.90;64.10
1830;DHT22;914;48.118;11.600;2022-08-04T20:46:59;30.80;64.70
1830;DHT22;914;48.118;11.600;2022-08-04T20:49:25;30.80;64.60
1830;DHT22;914;48.118;11.600;2022-08-04T20:51:53;30.80;65.40
1830;DHT22;914;48.118;11.600;2022-08-04T20:54:20;30.70;65.60
1830;DHT22;914;48.118;11.600;2022-08-04T20:56:46;30.70;66.10
1830;DHT22;914;48.118;11.600;2022-08-04T20:59:12;30.70;66.60
1830;DHT22;914;48.118;11.600;2022-08-04T21:01:37;30.60;66.90
1830;DHT22;914;48.118;11.600;2022-08-04T21:04:03;30.60;66.70
1830;DHT22;914;48.118;11.600;2022-08-04T21:06:47;30.60;66.40
1830;DHT22;914;48.118;11.600;2022-08-04T21:09:13;30.50;66.40
1830;DHT22;914;48.118;11.600;2022-08-04T21:11:39;30.50;66.60
1830;DHT22;914;48.118;11.600;2022-08-04T21:14:07;30.40;67.40
1830;DHT22;914;48.118;11.600;2022-08-04T21:16:33;30.40;67.80
1830;DHT22;914;48.118;11.600;2022-08-04T21:19:07;30.30;67.40
1830;DHT22;914;48.118;11.600;2022-08-04T21:21:46;30.30;67.70
1830;DHT22;914;48.118;11.600;2022-08-04T21:24:12;30.30;68.20
1830;DHT22;914;48.118;11.600;2022-08-04T21:26:38;30.30;68.30
1830;DHT22;914;48.118;11.600;2022-08-04T21:29:03;30.30;68.30
1830;DHT22;914;48.118;11.600;2022-08-04T21:31:29;30.20;69.30
1830;DHT22;914;48.118;11.600;2022-08-04T21:33:55;30.10;69.30
1830;DHT22;914;48.118;11.600;2022-08-04T21:36:20;30.00;69.40
1830;DHT22;914;48.118;11.600;2022-08-04T21:38:47;30.00;69.80
1830;DHT22;914;48.118;11.600;2022-08-04T21:41:13;30.00;69.40
1830;DHT22;914;48.118;11.600;2022-08-04T21:43:38;30.00;69.60
1830;DHT22;914;48.118;11.600;2022-08-04T21:46:04;29.90;70.10
1830;DHT22;914;48.118;11.600;2022-08-04T21:48:30;29.80;70.00
1830;DHT22;914;48.118;11.600;2022-08-04T21:50:56;29.80;69.70
1830;DHT22;914;48.118;11.600;2022-08-04T21:53:22;29.80;69.60
1830;DHT22;914;48.118;11.600;2022-08-04T21:55:48;29.70;70.40
1830;DHT22;914;48.118;11.600;2022-08-04T21:58:14;29.60;72.10
1830;DHT22;914;48.118;11.600;2022-08-04T22:00:40;29.60;71.30
1830;DHT22;914;48.118;11.600;2022-08-04T22:03:06;29.50;70.60
1830;DHT22;914;48.118;11.600;2022-08-04T22:05:31;29.50;71.20
1830;DHT22;914;48.118;11.600;2022-08-04T22:07:57;29.40;70.70
1830;DHT22;914;48.118;11.600;2022-08-04T22:10:23;29.40;71.00
1830;DHT22;914;48.118;11.600;2022-08-04T22:12:49;29.30;71.90
1830;DHT22;914;48.118;11.600;2022-08-04T22:15:14;29.20;73.20
1830;DHT22;914;48.118;11.600;2022-08-04T22:17:46;29.20;73.60
1830;DHT22;914;48.118;11.600;2022-08-04T22:20:11;29.20;73.40
1830;DHT22;914;48.118;11.600;2022-08-04T22:22:39;29.20;73.40
1830;DHT22;914;48.118;11.600;2022-08-04T22:25:10;29.10;73.70
1830;DHT22;914;48.118;11.600;2022-08-04T22:27:36;28.90;74.50
1830;DHT22;914;48.118;11.600;2022-08-04T22:30:21;28.90;74.20
1830;DHT22;914;48.118;11.600;2022-08-04T22:32:47;28.80;73.10
1830;DHT22;914;48.118;11.600;2022-08-04T22:35:14;28.80;73.80
1830;DHT22;914;48.118;11.600;2022-08-04T22:37:40;28.70;73.40
1830;DHT22;914;48.118;11.600;2022-08-04T22:40:07;28.70;74.20
1830;DHT22;914;48.118;11.600;2022-08-04T22:42:33;28.70;75.40
1830;DHT22;914;48.118;11.600;2022-08-04T22:44:58;28.60;74.50
1830;DHT22;914;48.118;11.600;2022-08-04T22:47:27;28.60;75.70
1830;DHT22;914;48.118;11.600;2022-08-04T22:49:52;28.70;75.90
1830;DHT22;914;48.118;11.600;2022-08-04T22:52:18;28.60;75.40
1830;DHT22;914;48.118;11.600;2022-08-04T22:54:44;28.60;75.60
1830;DHT22;914;48.118;11.600;2022-08-04T22:57:09;28.50;74.60
1830;DHT22;914;48.118;11.600;2022-08-04T22:59:35;28.40;74.50
1830;DHT22;914;48.118;11.600;2022-08-04T23:02:01;28.50;76.00
1830;DHT22;914;48.118;11.600;2022-08-04T23:04:29;28.50;76.80
1830;DHT22;914;48.118;11.600;2022-08-04T23:06:55;28.40;77.00
1830;DHT22;914;48.118;11.600;2022-08-04T23:09:21;28.30;77.10
1830;DHT22;914;48.118;11.600;2022-08-04T23:11:47;28.40;77.30
1830;DHT22;914;48.118;11.600;2022-08-04T23:14:15;28.40;76.60
1830;DHT22;914;48.118;11.600;2022-08-04T23:16:41;28.30;77.50
1830;DHT22;914;48.118;11.600;2022-08-04T23:19:07;28.20;77.20
1830;DHT22;914;48.118;11.600;2022-08-04T23:21:33;28.30;77.40
1830;DHT22;914;48.118;11.600;2022-08-04T23:23:58;28.40;77.60
1830;DHT22;914;48.118;11.600;2022-08-04T23:26:24;28.30;77.00
1830;DHT22;914;48.118;11.600;2022-08-04T23:28:50;28.10;77.60
1830;DHT22;914;48.118;11.600;2022-08-04T23:31:18;28.00;78.60
1830;DHT22;914;48.118;11.600;2022-08-04T23:33:43;27.80;79.60
1830;DHT22;914;48.118;11.600;2022-08-04T23:36:09;27.60;80.30
1830;DHT22;914;48.118;11.600;2022-08-04T23:38:35;27.50;80.60
1830;DHT22;914;48.118;11.600;2022-08-04T23:41:08;27.60;80.00
1830;DHT22;914;48.118;11.600;2022-08-04T23:43:35;27.80;79.30
1830;DHT22;914;48.118;11.600;2022-08-04T23:46:00;27.90;79.30
1830;DHT22;914;48.118;11.600;2022-08-04T23:48:26;28.10;79.60
1830;DHT22;914;48.118;11.600;2022-08-04T23:50:52;28.10;79.30
1830;DHT22;914;48.118;11.600;2022-08-04T23:53:18;28.00;78.70
1830;DHT22;914;48.118;11.600;2022-08-04T23:55:43;28.00;78.40
1830;DHT22;914;48.118;11.600;2022-08-04T23:58:09;27.90;78.20
